x

Norfolk, Va (44059) Weather Station

11:50pm - Wed 2nd Sep 2015 All times are EDT. -4 hours from GMT.

  • Wind
    2mph, 4mph gusts
  • Air Temp 74°f
  • Sea Pressure 1013mb
  • Norfolk, Va
  • Norfolk, Va

More Historic Weather Station data

Upgrade to MSW Pro to gain access to the past 30 days of data for over 8000 Wavebouys and Weather Stations around the globe.

Join Pro

Comparision Forecast

View Surf forecast
   
Wed 09/02 11:50pm 2 4 mph 1013mb - 74f
11:40pm 2 4 mph 1013mb - 73f
11:30pm 2 4 mph 1013.1mb - 73f
11:20pm 2 4 mph 1013.2mb - 73f
11:10pm  -  2 mph 1013.2mb - 73f
11:00pm 2 7 mph 1013.4mb 81f 73f
10:50pm 4 9 mph 1013.6mb - 73f
10:40pm 7 13 mph 1013.7mb - 73f
10:30pm 9 13 mph 1013.6mb - 73f
10:20pm 7 16 mph 1013.5mb - 73f
10:10pm 7 13 mph 1013.5mb - 72f
10:00pm 7 11 mph 1013.1mb 81f 72f
9:50pm 7 9 mph 1013.1mb - 72f
9:40pm 7 9 mph 1013.1mb - 72f
9:30pm 7 9 mph 1012.9mb - 72f
9:20pm 4 9 mph 1012.8mb - 72f
9:10pm 4 7 mph 1012.8mb - 73f
9:00pm 4 7 mph 1012.9mb 81f 73f
8:50pm 7 9 mph 1012.9mb - 73f
8:40pm 4 7 mph 1012.6mb - 73f
8:30pm 2 4 mph 1012.8mb - 73f
8:20pm 2 4 mph 1012.9mb - 73f
8:10pm 2 4 mph 1012.7mb - 72f
8:00pm 4 7 mph 1012.9mb 80f 72f
7:50pm 4 7 mph 1012.9mb - 72f
7:40pm 7 9 mph 1013.2mb - 72f
7:30pm 7 9 mph 1013.2mb - 72f
7:20pm 4 9 mph 1013.4mb - 72f
7:10pm 7 9 mph 1013.4mb - 71f
7:00pm 9 13 mph 1013.6mb 80f 71f
6:50pm 11 16 mph 1013.7mb - 73f
6:40pm 9 13 mph 1013.4mb - 73f
6:30pm 9 11 mph 1013.2mb - 73f
6:20pm 9 13 mph 1013.3mb - 73f
6:10pm 13 29 mph 1013.4mb - 74f
6:00pm 20 43 mph 1014.9mb 81f 72f
5:50pm 25
mph
1013.5mb - 77f
5:40pm 7 9 mph 1012.9mb - 81f
5:30pm 9 13 mph 1012.9mb - 81f
5:20pm 11 13 mph 1013mb - 81f
5:10pm 11 16 mph 1013mb - 82f
5:00pm 11 16 mph 1012.9mb 81f 84f
4:50pm 11 16 mph 1012.6mb - 85f
4:40pm 9 11 mph 1012.7mb - 87f
4:30pm 7 9 mph 1012.7mb - 87f
4:20pm 4 7 mph 1012.7mb - 87f
4:10pm 2 4 mph 1012.9mb - 88f
4:00pm 4 7 mph 1013.1mb 81f 87f
3:50pm 4 7 mph 1013.2mb - 88f
3:40pm 4 7 mph 1013.2mb - 89f
3:30pm 4 7 mph 1013.2mb - 89f
3:20pm 4 7 mph 1013.4mb - 89f
3:10pm 4
mph
1013.5mb - 89f
3:00pm 4 9 mph 1013.6mb 82f 89f
2:50pm 4 7 mph 1013.8mb - 89f
2:40pm 4 7 mph 1013.9mb - 89f
2:30pm 7 9 mph 1014.1mb - 88f
2:20pm 4 7 mph 1014.2mb - 89f
2:10pm 4 7 mph 1014.3mb - 88f
2:00pm 4 7 mph 1014.4mb 82f 88f
1:50pm 7 9 mph 1014.5mb - 88f
1:40pm 4 7 mph 1014.6mb - 88f
1:30pm 4 7 mph 1014.7mb - 87f
1:20pm 7 9 mph 1014.8mb - 87f
1:10pm 7
mph
1014.9mb - 87f
1:00pm 7 9 mph 1015mb 81f 87f
12:50pm 7 9 mph 1015.1mb - 87f
12:40pm 4 7 mph 1015.2mb - 87f
12:30pm 4 7 mph 1015.3mb - 86f
12:20pm 4 7 mph 1015.4mb - 87f
12:10pm 4 7 mph 1015.5mb - 87f
12:00pm 4 7 mph 1015.6mb 81f 86f
11:50am 2 4 mph 1015.7mb - 86f
11:40am 2 4 mph 1015.8mb - 85f
11:30am 4 7 mph 1015.9mb - 84f
11:20am 4
mph
1016mb - 83f
11:10am 4
mph
1016mb - 83f
11:00am 4
mph
1016mb 81f 82f
10:50am 4
mph
1016.1mb - 82f
10:40am 4
mph
1016.1mb - 82f
10:30am 4
mph
1016.2mb - 81f
10:20am 4
mph
1016.2mb - 81f
10:10am 2 4 mph 1016.2mb - 81f
10:00am 4
mph
1016.1mb 80f 80f
9:50am 4
mph
1016.2mb - 80f
9:40am 4 7 mph 1016.3mb - 80f
9:30am 2 4 mph 1016.3mb - 80f
9:20am 4 7 mph 1016.3mb - 80f
9:10am 4 7 mph 1016.3mb - 79f
9:00am 2 4 mph 1016.4mb 80f 79f
8:50am 4 7 mph 1016.6mb - 78f
8:40am 4 7 mph 1016.5mb - 78f
8:30am 4 7 mph 1016.7mb - 77f
8:20am 2 7 mph 1016.7mb - 76f
8:10am 4 7 mph 1016.8mb - 76f
8:00am 2 7 mph 1016.8mb 80f 76f
7:50am 2 4 mph 1016.7mb - 75f
7:40am 2 4 mph 1016.7mb - 75f
7:30am 2 4 mph 1016.6mb - 75f
7:20am 2
mph
1016.6mb - 74f
7:10am 2
mph
1016.5mb - 74f
7:00am 2
mph
1016.4mb 80f 74f
6:50am 2
mph
1016.4mb - 74f
6:40am 2
mph
1016.4mb - 74f
6:30am 2
mph
1016.3mb - 74f
6:20am 2 4 mph 1016.2mb - 74f
6:10am 2
mph
1016.1mb - 74f
6:00am 2
mph
1016.1mb 80f 74f
5:50am 2 4 mph 1016.1mb - 74f
5:40am 2
mph
1016mb - 74f
5:30am 2 4 mph 1016.1mb - 74f
5:20am 2 4 mph 1016.1mb - 74f
5:10am 2
mph
1016.1mb - 74f
5:00am 2 4 mph 1016mb 80f 74f
4:50am 2
mph
1016mb - 74f
4:40am 2
mph
1016mb - 74f
4:30am 2
mph
1016mb - 74f
4:20am 2
mph
1016mb - 74f
4:10am 2
mph
1016mb - 74f
4:00am 2 4 mph 1016.1mb 80f 74f
3:50am 2
mph
1016.2mb - 74f
3:40am 2 4 mph 1016.2mb - 74f
3:30am 4
mph
1016.2mb - 74f
3:20am 2 4 mph 1016.2mb - 74f
3:10am 2 4 mph 1016.1mb - 74f
3:00am 2 4 mph 1016mb 80f 75f
2:50am 2 4 mph 1016mb - 75f
2:40am 2 4 mph 1016.1mb - 75f
2:30am 2 4 mph 1016.2mb - 75f
2:20am 4
mph
1016.2mb - 75f
2:10am 2 4 mph 1016.2mb - 75f
2:00am 2 4 mph 1016.3mb 80f 75f
1:50am 4
mph
1016.4mb - 75f
1:40am 4
mph
1016.5mb - 75f
1:30am 4
mph
1016.5mb - 76f
1:20am 2 4 mph 1016.5mb - 76f
1:10am 2 4 mph 1016.5mb - 76f
1:00am 4
mph
1016.6mb 80f 76f
12:50am 2 4 mph 1016.6mb - 76f
12:40am 2
mph
1016.5mb - 77f
12:30am 2 4 mph 1016.6mb - 77f
12:20am 4
mph
1016.7mb - 77f
12:10am 2 4 mph 1016.7mb - 77f
12:00am 4 7 mph 1016.7mb 80f 77f
Tue 09/01 11:50pm 4 7 mph 1016.7mb - 77f
11:40pm 4
mph
1016.8mb - 77f
11:30pm 4 7 mph 1016.7mb - 77f
11:20pm 4 7 mph 1016.7mb - 78f
11:10pm 4 7 mph 1016.7mb - 78f
11:00pm 4 7 mph 1016.6mb 80f 78f
10:50pm 4 7 mph 1016.6mb - 78f
10:40pm 4 7 mph 1016.6mb - 78f
10:30pm 4 7 mph 1016.6mb - 78f
10:20pm 7
mph
1016.6mb - 78f
10:10pm 7
mph
1016.7mb - 78f
10:00pm 7
mph
1016.7mb 81f 79f
9:50pm 4 7 mph 1016.7mb - 79f
9:40pm 4 7 mph 1016.6mb - 79f
9:30pm 4 7 mph 1016.5mb - 80f
9:20pm 4 7 mph 1016.5mb - 80f
9:10pm 7 9 mph 1016.4mb - 80f
9:00pm 7
mph
1016.4mb 81f 80f
8:50pm 7 9 mph 1016.3mb - 81f
8:40pm 7 9 mph 1016.1mb - 81f
8:30pm 4 9 mph 1016mb - 82f
8:20pm 2 4 mph 1015.9mb - 82f
8:10pm 2 4 mph 1015.8mb - 82f
8:00pm  -  2 mph 1015.8mb 82f 83f
7:50pm  -  2 mph 1015.8mb - 83f
7:40pm 2 4 mph 1015.7mb - 83f
7:30pm 4
mph
1015.7mb - 83f
7:20pm 4
mph
1015.7mb - 84f
7:10pm 4 7 mph 1015.7mb - 84f
7:00pm 4 7 mph 1015.6mb 82f 85f
6:50pm 4 7 mph 1015.7mb - 85f
6:40pm 4 7 mph 1015.7mb - 85f
6:30pm 4 7 mph 1015.7mb - 85f
6:20pm 4 7 mph 1015.7mb - 85f
6:10pm 7 9 mph 1015.6mb - 85f
6:00pm 4 7 mph 1015.6mb 82f 85f
5:50pm 4 7 mph 1015.6mb - 85f
5:40pm 4 7 mph 1015.5mb - 85f
5:30pm 4 7 mph 1015.6mb - 86f
5:20pm 4 7 mph 1015.6mb - 85f
5:10pm 4 7 mph 1015.6mb - 86f
5:00pm 4 7 mph 1015.6mb 82f 85f
4:50pm 4 7 mph 1015.6mb - 85f
4:40pm 4 7 mph 1015.5mb - 85f
4:30pm 4 7 mph 1015.5mb - 85f
4:20pm 7 9 mph 1015.5mb - 85f
4:10pm 4 9 mph 1015.5mb - 85f
4:00pm 7 9 mph 1015.5mb 82f 84f
3:50pm 4 9 mph 1015.6mb - 84f
3:40pm 4 7 mph 1015.7mb - 84f
3:30pm 4 7 mph 1015.9mb - 84f
3:20pm 4 7 mph 1015.9mb - 83f
3:10pm 4 7 mph 1016mb - 83f
3:00pm 4 7 mph 1016.1mb 81f 83f
2:50pm 4 7 mph 1016.3mb - 83f
2:40pm 4 7 mph 1016.4mb - 83f
2:30pm 4 7 mph 1016.4mb - 82f
2:20pm 4 7 mph 1016.5mb - 82f
2:10pm 7 9 mph 1016.6mb - 82f
2:00pm 4 7 mph 1016.6mb 81f 82f
1:50pm 2 4 mph 1016.8mb - 81f
1:40pm 2 4 mph 1016.9mb - 81f
1:30pm 4 7 mph 1016.9mb - 81f
1:20pm 4 7 mph 1017mb - 81f
1:10pm 4
mph
1017.1mb - 81f
1:00pm  -  2 mph 1017.2mb 80f 81f
12:50pm 2 4 mph 1017.3mb - 80f
12:40pm  -  2 mph 1017.4mb - 80f
12:30pm 2
mph
1017.5mb - 79f
12:20pm 2
mph
1017.6mb - 79f
12:10pm 2 4 mph 1017.6mb - 79f
12:00pm 2 4 mph 1017.7mb 80f 78f
11:50am 2 4 mph 1017.9mb - 78f
11:40am 2 4 mph 1018.1mb - 78f
11:30am 2 4 mph 1018.1mb - 78f
11:20am 2 4 mph 1018.1mb - 77f
11:10am 2 4 mph 1018.1mb - 77f
11:00am 4 7 mph 1018.1mb 80f 77f
10:50am 4 7 mph 1018mb - 76f
10:40am 4 7 mph 1017.9mb - 76f
10:30am 4 9 mph 1017.8mb - 76f
10:20am 4 9 mph 1017.7mb - 76f
10:10am 4 9 mph 1017.6mb - 76f
10:00am 4 9 mph 1017.5mb 80f 75f
9:50am 4 7 mph 1017.5mb - 75f
9:40am 4 7 mph 1017.4mb - 75f
9:30am 4 7 mph 1017.4mb - 75f
9:20am 7
mph
1017.3mb - 75f
9:10am 4 7 mph 1017.2mb - 75f
9:00am 4 7 mph 1017.1mb 80f 75f
8:50am 4 7 mph 1017mb - 74f
8:40am 4 7 mph 1017mb - 74f
8:30am 4 7 mph 1016.8mb - 74f
8:20am 4 7 mph 1016.8mb - 74f
8:10am 4 7 mph 1016.7mb - 74f
8:00am 4 7 mph 1016.7mb 80f 74f
7:50am 4 7 mph 1016.7mb - 74f
7:40am 4 7 mph 1016.6mb - 74f
7:30am 7
mph
1016.6mb - 74f
7:20am 4 7 mph 1016.6mb - 74f
7:10am 4 7 mph 1016.6mb - 74f
7:00am 2 7 mph 1016.6mb 80f 74f
6:50am 2 4 mph 1016.5mb - 74f
6:40am  -  2 mph 1016.5mb - 73f
6:30am 2
mph
1016.4mb - 73f
6:20am 2 4 mph 1016.3mb - 73f
6:10am 2 4 mph 1016.3mb - 73f
6:00am 2 4 mph 1016.2mb 80f 74f
5:50am 2 4 mph 1016.1mb - 74f
5:40am 2 4 mph 1016.1mb - 73f
5:30am 2 4 mph 1016mb - 74f
5:20am 2
mph
1015.9mb - 74f
5:10am 2
mph
1015.9mb - 74f
5:00am 2
mph
1016mb 80f 74f
4:50am 2
mph
1016.1mb - 74f
4:40am 2
mph
1016.1mb - 74f
4:30am 2
mph
1016mb - 74f
4:20am 2
mph
1016mb - 74f
4:10am 2
mph
1016mb - 74f
4:00am 2
mph
1016.1mb 80f 74f
3:50am 2
mph
1016.3mb - 74f
3:40am 2
mph
1016.4mb - 74f
3:30am 2 4 mph 1016.4mb - 74f
3:20am 2 4 mph 1016.3mb - 74f
3:10am 2
mph
1016.2mb - 75f
3:00am  -  2 mph 1016.3mb 80f 75f
2:50am  -  2 mph 1016.3mb - 75f
2:40am 2
mph
1016.4mb - 75f
2:30am  -  mph 1016.4mb - 75f
2:20am  -  2 mph 1016.6mb - 75f
2:10am  -  2 mph 1016.6mb - 75f
2:00am  -  2 mph 1016.7mb 80f 74f
1:50am 2
mph
1016.8mb - 74f
1:40am  -  2 mph 1016.9mb - 74f
1:30am  -  2 mph 1016.9mb - 74f
1:20am 2
mph
1016.9mb - 74f
1:10am 2 4 mph 1016.9mb - 74f
1:00am 2 4 mph 1017mb 80f 74f
12:50am 2 4 mph 1017.1mb - 75f
12:40am 2 4 mph 1017.1mb - 74f
12:30am 2 4 mph 1017.2mb - 75f
12:20am 2 7 mph 1017.1mb - 75f
12:10am 4 7 mph 1017.1mb - 75f
12:00am 7 9 mph 1017mb 80f 75f
Mon 08/31 11:50pm 7 9 mph 1017mb - 75f
11:40pm 7 9 mph 1017mb - 74f
11:30pm 7
mph
1017.1mb - 74f
11:20pm 4 7 mph 1017.2mb - 74f
11:10pm 4 7 mph 1017.2mb - 74f
11:00pm 4 7 mph 1017.3mb 80f 74f
10:50pm 4 9 mph 1017.4mb - 74f
10:40pm 4 7 mph 1017.5mb - 75f
10:30pm 4 9 mph 1017.5mb - 75f
10:20pm 4 7 mph 1017.6mb - 75f
10:10pm 4 7 mph 1017.6mb - 75f
10:00pm 4 7 mph 1017.5mb 80f 75f
9:50pm 4 7 mph 1017.5mb - 75f
9:40pm 7 11 mph 1017.4mb - 75f
9:30pm 7 11 mph 1017.3mb - 75f
9:20pm 7 9 mph 1017.3mb - 75f
9:10pm 7 9 mph 1017.3mb - 75f
9:00pm 4 9 mph 1017.4mb 80f 75f
8:50pm 4 7 mph 1017.4mb - 75f
8:40pm 4 7 mph 1017.4mb - 75f
8:30pm 4 7 mph 1017.4mb - 75f
8:20pm 4 7 mph 1017.3mb - 75f
8:10pm 4 9 mph 1017.3mb - 75f
8:00pm 4 7 mph 1017.3mb 80f 75f
7:50pm 4 7 mph 1017.3mb - 75f
7:10pm 4 7 mph 1017.3mb - 75f
7:00pm 7 9 mph 1017.4mb 80f 75f
6:50pm 7 9 mph 1017.5mb - 76f
6:40pm 4 9 mph 1017.6mb - 76f
6:30pm 4 7 mph 1017.7mb - 76f
6:20pm 4
mph
1017.7mb - 76f
6:10pm 4 9 mph 1017.7mb - 75f
6:00pm 7 9 mph 1017.7mb 80f 75f
5:50pm 7 9 mph 1017.8mb - 76f
5:40pm 7 11 mph 1018mb - 76f
5:30pm 7 9 mph 1018mb - 76f
5:20pm 4 9 mph 1018.1mb - 76f
5:10pm 7 9 mph 1018.2mb - 76f
5:00pm 7 11 mph 1018.2mb 81f 76f
4:50pm 7 11 mph 1018.2mb - 76f
4:40pm 9 13 mph 1018.3mb - 76f
4:30pm 9 13 mph 1018.4mb - 76f
4:20pm 7 11 mph 1018.3mb - 77f
4:10pm 4 9 mph 1018.4mb - 77f
4:00pm 2 7 mph 1018.5mb 80f 77f
3:50pm 2 4 mph 1018.4mb - 77f
3:40pm 2 7 mph 1018.5mb - 77f
3:30pm  -  2 mph 1018.4mb - 77f
3:20pm 2 4 mph 1018.4mb - 77f
3:10pm 4 7 mph 1018.3mb - 77f
3:00pm 2 4 mph 1018.3mb 80f 77f
2:50pm 2 4 mph 1018.3mb - 76f
2:40pm 2 4 mph 1018.2mb - 76f
2:30pm 2 4 mph 1018.1mb - 76f
2:20pm  -  2 mph 1018.2mb - 76f
2:10pm 2 4 mph 1018.1mb - 75f
2:00pm 4 7 mph 1018.1mb 80f 74f
1:50pm 4 9 mph 1017.9mb - 74f
1:40pm 7 11 mph 1017.8mb - 74f
1:30pm 7 11 mph 1017.9mb - 74f
1:20pm 9 13 mph 1018mb - 74f
1:10pm 11 13 mph 1018.2mb - 73f
1:00pm 9 13 mph 1018.5mb 80f 73f
12:50pm 9 11 mph 1018.9mb - 73f
12:40pm 7 9 mph 1019.3mb - 73f
12:30pm 7 9 mph 1019.6mb - 73f
12:20pm 7 9 mph 1019.7mb - 73f
12:10pm 4 7 mph 1019.9mb - 73f
12:00pm 4 7 mph 1019.9mb 80f 73f
11:50am 4 9 mph 1020mb - 73f
10:50am 4 7 mph 1019.6mb - 73f
9:50am 7 11 mph 1019.2mb - 77f
9:40am 7 9 mph 1019.1mb - 77f
9:30am 7
mph
1019mb - 77f
9:20am 4 7 mph 1019mb - 77f
9:10am 4 7 mph 1019mb - 77f
9:00am 7 9 mph 1019mb 80f 77f
8:50am 4 7 mph 1019mb - 77f
8:40am 4 7 mph 1019mb - 76f
8:30am 4 7 mph 1018.9mb - 76f
8:20am 4 7 mph 1019mb - 76f
8:10am 4 7 mph 1019mb - 75f
8:00am 4 7 mph 1019mb 80f 75f
7:50am 4 7 mph 1018.9mb - 75f
7:40am 4 7 mph 1018.8mb - 75f
7:30am 2 4 mph 1018.7mb - 76f
7:20am  -  2 mph 1018.7mb - 75f
7:10am 2 4 mph 1018.7mb - 75f
7:00am 2 4 mph 1018.6mb 80f 75f
6:50am 2 4 mph 1018.4mb - 76f
6:40am 2 4 mph 1018.3mb - 75f
6:30am 2 4 mph 1018.4mb - 75f
6:20am 4 7 mph 1018.4mb - 75f
6:10am 4 7 mph 1018.3mb - 75f
6:00am 4
mph
1018.3mb 80f 75f
5:50am 4
mph
1018.4mb - 76f
5:40am 2 4 mph 1018.3mb - 75f
5:30am 2 4 mph 1018.3mb - 75f
5:20am 2 4 mph 1018.3mb - 75f
5:10am 2 4 mph 1018.4mb - 75f
5:00am 4 7 mph 1018.5mb 80f 75f
4:50am 4 7 mph 1018.5mb - 75f
4:40am 4 7 mph 1018.5mb - 75f
4:30am 4 9 mph 1018.4mb - 75f
4:20am 4 7 mph 1018.4mb - 75f
4:10am 4 7 mph 1018.4mb - 75f
4:00am 4 7 mph 1018.3mb 80f 75f
3:50am 4
mph
1018.2mb - 76f
3:40am 4 7 mph 1018.2mb - 76f
3:30am 2 4 mph 1018.1mb - 76f
3:20am 2 4 mph 1018mb - 76f
3:10am 2 4 mph 1018.1mb - 76f
3:00am 2 4 mph 1018.2mb 80f 76f
2:50am 2 4 mph 1018.2mb - 76f
2:40am 2 4 mph 1018.1mb - 76f
2:30am 4 7 mph 1018.2mb - 76f
2:20am 4 7 mph 1018.3mb - 76f
2:10am 4 9 mph 1018.3mb - 76f
2:00am 4 9 mph 1018.3mb 80f 76f
1:50am 7 9 mph 1018.5mb - 76f
1:40am 7 11 mph 1018.5mb - 76f
1:30am 7 11 mph 1018.5mb - 76f
1:20am 7 11 mph 1018.5mb - 76f
1:10am 7 11 mph 1018.6mb - 76f
1:00am 7 9 mph 1018.6mb 80f 76f
12:50am 7 9 mph 1018.7mb - 76f
12:40am 7 9 mph 1018.7mb - 77f
12:30am 7 9 mph 1018.7mb - 77f
12:20am 4 9 mph 1018.8mb - 77f
12:10am 7 9 mph 1018.7mb - 77f
12:00am 7 11 mph 1018.7mb 80f 77f
Sun 08/30 11:50pm 9 11 mph 1018.7mb - 77f
11:40pm 7 9 mph 1018.8mb - 77f
11:30pm 7 9 mph 1018.8mb - 77f
11:20pm 7 9 mph 1018.8mb - 77f
11:10pm 7 9 mph 1018.7mb - 77f
11:00pm 7 9 mph 1018.7mb 80f 77f
10:50pm 7 9 mph 1018.8mb - 77f
10:40pm 9 11 mph 1018.7mb - 77f
10:30pm 7 9 mph 1018.6mb - 77f
10:20pm 4 7 mph 1018.6mb - 77f
10:10pm 7 9 mph 1018.6mb - 77f
10:00pm 7 9 mph 1018.5mb 80f 77f
9:50pm 7 9 mph 1018.5mb - 77f
9:40pm 4 7 mph 1018.5mb - 78f
9:30pm 4 7 mph 1018.5mb - 78f
9:20pm 4
mph
1018.6mb - 78f
9:10pm 7 9 mph 1018.6mb - 78f
9:00pm 7 9 mph 1018.7mb 80f 78f
8:50pm 7 9 mph 1018.8mb - 78f
8:40pm 7 9 mph 1018.8mb - 78f
8:30pm 7 9 mph 1018.7mb - 78f
8:20pm 7 9 mph 1018.6mb - 78f
8:10pm 7 9 mph 1018.6mb - 79f
8:00pm 7 9 mph 1018.6mb 80f 79f
7:50pm 4 9 mph 1018.6mb - 79f
7:40pm 7 9 mph 1018.6mb - 79f
7:30pm 7 9 mph 1018.6mb - 80f
7:20pm 7 9 mph 1018.7mb - 80f
7:10pm 7 9 mph 1018.7mb - 80f
7:00pm 7 9 mph 1018.8mb 81f 80f
6:50pm 7 9 mph 1018.8mb - 81f
6:40pm 7 9 mph 1018.8mb - 81f
6:30pm 7 11 mph 1018.7mb - 81f
6:20pm 7 9 mph 1018.6mb - 82f
6:10pm 9 11 mph 1018.5mb - 82f
6:00pm 9 11 mph 1018.5mb 81f 82f
5:50pm 9 11 mph 1018.5mb - 82f
5:40pm 9 11 mph 1018.5mb - 82f
5:30pm 7 11 mph 1018.5mb - 82f
5:20pm 9 11 mph 1018.6mb - 82f
5:10pm 9 11 mph 1018.4mb - 82f
5:00pm 9 11 mph 1018.3mb 81f 82f
4:50pm 11 13 mph 1018.2mb - 83f
4:40pm 7 13 mph 1018.1mb - 83f
4:30pm 7 11 mph 1018.2mb - 83f
4:20pm 9 13 mph 1018.1mb - 83f
4:10pm 9 13 mph 1018.1mb - 83f
4:00pm 7 11 mph 1018.2mb 81f 83f
3:50pm 7 11 mph 1018.3mb - 83f
3:40pm 7 11 mph 1018.4mb - 83f
3:30pm 9 13 mph 1018.5mb - 83f
3:20pm 9 13 mph 1018.4mb - 83f
3:10pm 9 16 mph 1018.5mb - 84f
3:00pm 9 13 mph 1018.6mb 81f 84f
2:50pm 7 11 mph 1018.6mb - 84f
2:40pm 7 9 mph 1018.6mb - 84f
2:30pm 4 9 mph 1018.9mb - 84f
2:20pm 7 11 mph 1019mb - 84f
2:10pm 2 4 mph 1019.1mb - 84f
2:00pm 2 7 mph 1019.1mb 81f 84f
1:50pm 2 9 mph 1019.2mb - 84f
1:40pm 4 9 mph 1019.4mb - 83f
1:30pm 2 7 mph 1019.4mb - 83f
1:20pm 2 9 mph 1019.4mb - 83f
1:10pm 2 11 mph 1019.5mb - 83f
1:00pm 2 7 mph 1019.6mb 81f 82f
12:50pm 4 9 mph 1019.8mb - 82f
12:40pm 4 7 mph 1019.9mb - 82f
12:30pm 9 11 mph 1020mb - 81f
12:20pm 9 11 mph 1020mb - 81f
12:10pm 7 9 mph 1020.1mb - 81f
12:00pm 4 9 mph 1020.3mb 81f 81f
11:50am 7 9 mph 1020.3mb - 81f
11:40am 4 7 mph 1020.3mb - 80f
11:30am 4 7 mph 1020.5mb - 80f
11:20am 4 7 mph 1020.6mb - 79f
11:10am 4 7 mph 1020.6mb - 79f
11:00am 2 4 mph 1020.5mb 80f 78f
10:50am 4
mph
1020.4mb - 78f
10:40am 2 4 mph 1020.3mb - 78f
10:30am  -  2 mph 1020.1mb - 77f
10:20am 2 4 mph 1020mb - 76f
10:10am 2 4 mph 1020mb - 76f
10:00am 4
mph
1019.9mb 80f 75f
9:50am 4
mph
1019.8mb - 75f
9:40am 4
mph
1019.9mb - 75f
9:30am 2 4 mph 1020.1mb - 74f
9:20am 4
mph
1020.1mb - 74f
9:10am 4
mph
1020.1mb - 74f
9:00am 2 4 mph 1020.1mb 80f 73f
8:50am 4 7 mph 1020.1mb - 73f
8:40am 4
mph
1020mb - 73f
8:30am 4 7 mph 1020mb - 73f
8:20am 4 7 mph 1019.9mb - 72f
8:10am 4
mph
1019.7mb - 72f
8:00am 4
mph
1019.7mb 80f 72f
7:50am 2 4 mph 1019.6mb - 71f
7:40am 2
mph
1019.5mb - 71f
7:30am  -  2 mph 1019.5mb - 70f
7:20am 2 4 mph 1019.6mb - 70f
7:10am 2 4 mph 1019.5mb - 69f
7:00am 2 4 mph 1019.4mb 80f 70f
6:50am 2 4 mph 1019.3mb - 69f
6:40am 4
mph
1019.2mb - 69f
6:30am 2 4 mph 1019.1mb - 70f
6:20am 2 4 mph 1019mb - 70f
6:10am 4
mph
1018.9mb - 70f
6:00am 2 4 mph 1018.7mb 80f 71f
5:50am 2
mph
1018.6mb - 71f
5:40am 2 4 mph 1018.5mb - 70f
5:30am 2
mph
1018.3mb - 71f
5:20am 2
mph
1018.3mb - 71f
5:10am 2 4 mph 1018.4mb - 71f
5:00am 2 4 mph 1018.3mb 80f 71f
4:50am 2
mph
1018.3mb - 71f
4:40am 2
mph
1018.2mb - 71f